Weather at Barina Airport

Public forecast

Using degrees Celsius for public forecast. Weather courtesy of forecast.io.

Closest aviation weather report (METAR) to Barina Airport

Closest report is Nakuru Airport, 12.9 nm (23.9 km) SE.

2024/05/30 13:00 (retrieved 33 minutes ago)

HKNK 301300Z 36010KT 9999 SCT027 26/14

Closest aviation forecast (TAF) to Barina Airport

Closest forecast is Eldoret International Airport, 56.9 nm (105.4 km) NW.

2024/05/30 12:36 (retrieved 57 minutes ago)

TAF TAF HKEL 301100Z 3012/3118 18005KT 9999 FEW020CB SCT021 BECMG 3020/30 23 VRB02KT CAVOK BECMG 3107/3110 19010KT 9999 FEW020CB SCT021